Time;durP1;ratioP1;P1;durP2;ratioP2;P2;SDS_P1;SDS_P2;PMS_P1;PMS_P2;Temp;Humidity;BMP_temperature;BMP_pressure;BME280_temperature;BME280_humidity;BME280_pressure;Samples;Min_cycle;Max_cycle;Signal;HPM_P1;HPM_P2
2022/08/08 00:00:45;;;;;;;;;;;18.20;99.90;;;;;;5079995;28;20028;-59
2022/08/08 00:03:19;;;;;;;7.75;4.82;;;18.20;99.90;;;;;;5078804;28;19927;-59
2022/08/08 00:05:59;;;;;;;10.35;6.40;;;18.20;99.90;;;;;;5079599;28;20410;-60
2022/08/08 00:08:32;;;;;;;10.18;5.97;;;18.30;99.90;;;;;;5079856;28;20299;-59
2022/08/08 00:11:00;;;;;;;9.07;6.20;;;18.20;99.90;;;;;;5079450;28;20032;-59
2022/08/08 00:13:47;;;;;;;7.57;6.25;;;18.20;99.90;;;;;;5079378;28;20028;-59
2022/08/08 00:16:22;;;;;;;9.55;6.18;;;18.20;99.90;;;;;;5079396;28;20043;-59
2022/08/08 00:19:15;;;;;;;8.75;6.93;;;18.10;99.90;;;;;;5079304;28;20109;-60
2022/08/08 00:21:48;;;;;;;6.47;5.55;;;18.00;99.90;;;;;;5079362;28;20028;-59
2022/08/08 00:24:19;;;;;;;9.88;6.03;;;17.90;99.90;;;;;;5078402;28;20403;-59
2022/08/08 00:26:51;;;;;;;10.52;6.07;;;17.90;99.90;;;;;;5079341;28;20396;-59
2022/08/08 00:29:26;;;;;;;9.07;5.72;;;17.80;99.90;;;;;;5079188;28;20115;-59
2022/08/08 00:31:55;;;;;;;8.50;6.53;;;17.80;99.90;;;;;;5061686;28;20278;-59
2022/08/08 00:35:11;;;;;;;10.00;6.18;;;17.80;99.90;;;;;;5078539;28;20033;-59
2022/08/08 00:37:47;;;;;;;7.95;6.72;;;17.80;99.90;;;;;;5078532;28;20040;-59
2022/08/08 00:40:38;;;;;;;9.18;6.40;;;17.80;99.90;;;;;;5078846;28;20032;-60
2022/08/08 00:43:27;;;;;;;7.70;6.18;;;17.70;99.90;;;;;;5079130;28;20103;-59
2022/08/08 00:46:30;;;;;;;12.57;7.35;;;17.60;99.90;;;;;;5078933;28;20052;-60
2022/08/08 00:49:07;;;;;;;9.45;6.22;;;17.70;99.90;;;;;;5078756;28;20040;-59
2022/08/08 00:52:11;;;;;;;9.35;6.78;;;17.60;99.90;;;;;;5076625;28;20032;-59
2022/08/08 00:54:53;;;;;;;7.45;6.72;;;17.60;99.90;;;;;;5078885;28;20296;-59
2022/08/08 00:57:45;;;;;;;10.63;7.10;;;17.50;99.90;;;;;;5078456;28;20045;-59
2022/08/08 01:00:19;;;;;;;10.90;7.00;;;17.50;99.90;;;;;;5069408;28;20297;-59
2022/08/08 01:03:13;;;;;;;12.20;7.60;;;17.40;99.90;;;;;;5077673;28;20085;-59
2022/08/08 01:05:52;;;;;;;7.53;6.80;;;17.50;99.90;;;;;;5077905;28;20289;-59
2022/08/08 01:08:44;;;;;;;11.10;7.43;;;17.50;99.90;;;;;;5077560;28;20024;-59
2022/08/08 01:11:15;;;;;;;8.77;7.10;;;17.50;99.90;;;;;;5078344;28;20305;-59
2022/08/08 01:14:23;;;;;;;10.38;6.95;;;17.40;99.90;;;;;;5077679;28;20033;-59
2022/08/08 01:17:29;;;;;;;11.32;7.20;;;17.40;99.90;;;;;;5078268;28;20164;-59
2022/08/08 01:20:31;;;;;;;10.65;7.55;;;17.40;99.90;;;;;;5078128;28;20029;-59
2022/08/08 01:23:16;;;;;;;8.80;6.70;;;17.30;99.90;;;;;;5077549;28;20293;-59
2022/08/08 01:25:42;;;;;;;8.98;7.95;;;17.20;99.90;;;;;;5077277;28;20021;-59
2022/08/08 01:28:19;;;;;;;9.32;6.95;;;17.20;99.90;;;;;;5060942;28;20035;-59
2022/08/08 01:31:22;;;;;;;9.73;6.90;;;17.20;99.90;;;;;;5077333;28;20028;-59
2022/08/08 01:34:10;;;;;;;9.45;6.85;;;17.10;99.90;;;;;;5077075;28;20039;-59
2022/08/08 01:36:35;;;;;;;8.98;7.10;;;17.20;99.90;;;;;;5077001;28;20193;-59
2022/08/08 01:39:16;;;;;;;10.35;7.72;;;17.10;99.90;;;;;;5077735;28;20025;-59
2022/08/08 01:41:45;;;;;;;11.63;7.32;;;17.10;99.90;;;;;;5077834;28;20032;-59
2022/08/08 01:44:23;;;;;;;12.93;8.55;;;17.10;99.90;;;;;;5077518;28;20165;-59
2022/08/08 01:47:29;;;;;;;10.23;7.68;;;17.10;99.90;;;;;;5077870;28;20039;-59
2022/08/08 01:50:04;;;;;;;8.35;7.47;;;17.10;99.90;;;;;;5077364;28;20049;-59
2022/08/08 01:52:53;;;;;;;13.07;8.18;;;17.00;99.90;;;;;;5077508;28;20028;-59
2022/08/08 01:55:23;;;;;;;12.18;8.13;;;17.00;99.90;;;;;;5076664;28;20123;-59
2022/08/08 01:58:14;;;;;;;11.02;8.85;;;17.10;99.90;;;;;;5077316;28;20037;-59
2022/08/08 02:00:50;;;;;;;;;;;17.00;99.90;;;;;;5076945;28;20082;-59
2022/08/08 02:03:48;;;;;;;12.43;8.90;;;16.90;99.90;;;;;;5076350;28;19924;-59
2022/08/08 02:06:33;;;;;;;9.68;8.07;;;16.90;99.90;;;;;;5076432;28;20092;-59
2022/08/08 02:09:35;;;;;;;11.25;9.05;;;16.90;99.90;;;;;;5076614;28;20031;-60
2022/08/08 02:12:24;;;;;;;13.15;8.88;;;16.80;99.90;;;;;;5076413;28;20037;-59
2022/08/08 02:14:56;;;;;;;12.32;8.70;;;16.80;99.90;;;;;;5076324;28;20036;-59
2022/08/08 02:17:57;;;;;;;10.15;8.80;;;16.80;99.90;;;;;;5076393;28;20036;-59
2022/08/08 02:20:34;;;;;;;11.13;8.55;;;16.70;99.90;;;;;;5072806;28;20450;-59
2022/08/08 02:23:19;;;;;;;9.70;8.45;;;16.60;99.90;;;;;;5077020;28;20035;-59
2022/08/08 02:25:56;;;;;;;14.70;9.15;;;16.60;99.90;;;;;;5077254;28;20028;-60
2022/08/08 02:28:46;;;;;;;11.90;9.32;;;16.60;99.90;;;;;;5076161;28;20270;-59
2022/08/08 02:31:37;;;;;;;12.75;9.02;;;16.60;99.90;;;;;;5076124;28;20261;-59
2022/08/08 02:34:22;;;;;;;11.98;9.07;;;16.70;99.90;;;;;;5076190;28;20024;-60
2022/08/08 02:36:51;;;;;;;12.70;8.70;;;16.70;99.90;;;;;;5076169;28;20020;-59
2022/08/08 02:39:49;;;;;;;11.75;9.20;;;16.60;99.90;;;;;;5077032;28;20067;-59
2022/08/08 02:43:03;;;;;;;11.77;8.75;;;16.50;99.90;;;;;;5075906;28;20029;-59
2022/08/08 02:45:50;;;;;;;10.85;9.18;;;16.50;99.90;;;;;;5076011;28;20063;-59
2022/08/08 02:48:34;;;;;;;12.30;9.65;;;16.40;99.90;;;;;;5076550;28;20029;-60
2022/08/08 02:51:21;;;;;;;14.45;9.80;;;16.50;99.90;;;;;;5076948;28;20117;-59
2022/08/08 02:54:24;;;;;;;12.25;9.77;;;16.40;99.90;;;;;;5075894;28;20028;-59
2022/08/08 02:57:11;;;;;;;13.13;10.25;;;16.40;99.90;;;;;;5075703;28;20307;-59
2022/08/08 03:00:09;;;;;;;14.45;10.80;;;16.40;99.90;;;;;;5076620;28;20031;-59
2022/08/08 03:03:05;;;;;;;13.20;9.70;;;16.50;99.90;;;;;;5075786;28;20070;-59
2022/08/08 03:05:34;;;;;;;12.07;9.95;;;16.50;99.90;;;;;;5075781;28;20028;-59
2022/08/08 03:08:17;;;;;;;13.45;10.05;;;16.40;99.90;;;;;;5075757;28;20029;-59
2022/08/08 03:11:07;;;;;;;11.60;9.85;;;16.30;99.90;;;;;;5075790;28;20036;-59
2022/08/08 03:14:14;;;;;;;12.85;10.63;;;16.30;99.90;;;;;;5075969;28;20035;-59
2022/08/08 03:17:05;;;;;;;13.88;10.55;;;16.40;99.90;;;;;;5080264;28;20047;-59
2022/08/08 03:20:05;;;;;;;12.25;9.52;;;16.30;99.90;;;;;;5079670;28;20060;-59
2022/08/08 03:22:48;;;;;;;12.60;10.20;;;16.30;99.90;;;;;;5079563;28;20045;-59
2022/08/08 03:25:18;;;;;;;16.17;10.52;;;16.30;99.90;;;;;;5079505;28;20025;-59
2022/08/08 03:27:58;;;;;;;16.85;10.88;;;16.30;99.90;;;;;;5079542;28;20026;-59
2022/08/08 03:30:27;;;;;;;13.70;10.27;;;16.30;99.90;;;;;;5079479;28;20025;-59
2022/08/08 03:35:40;;;;;;;13.23;10.57;;;16.20;99.90;;;;;;5080929;28;20052;-59
2022/08/08 03:38:08;;;;;;;15.73;11.73;;;16.20;99.90;;;;;;5079548;28;20036;-59
2022/08/08 03:40:34;;;;;;;13.35;11.45;;;16.20;99.90;;;;;;5080598;28;20087;-60
2022/08/08 03:43:03;;;;;;;14.82;10.60;;;16.20;99.90;;;;;;5079101;28;20101;-59
2022/08/08 03:45:29;;;;;;;15.43;10.90;;;16.10;99.90;;;;;;5079117;28;20502;-59
2022/08/08 03:48:02;;;;;;;17.08;10.52;;;16.00;99.90;;;;;;5079203;28;20040;-59
2022/08/08 03:50:31;;;;;;;13.40;10.77;;;16.10;99.90;;;;;;5063063;28;20403;-59
2022/08/08 03:53:18;;;;;;;13.98;11.63;;;16.10;99.90;;;;;;5079726;28;20097;-59
2022/08/08 03:55:50;;;;;;;16.00;12.20;;;16.00;99.90;;;;;;5078984;28;20036;-59
2022/08/08 03:58:23;;;;;;;14.93;11.40;;;16.10;99.90;;;;;;5079600;28;20047;-59
2022/08/08 04:01:09;;;;;;;12.95;10.65;;;16.10;99.90;;;;;;5078676;28;20326;-59
2022/08/08 04:03:35;;;;;;;17.13;11.57;;;16.10;99.90;;;;;;5079518;28;20048;-59
2022/08/08 04:06:06;;;;;;;15.57;10.90;;;16.10;99.90;;;;;;5079557;28;20025;-59
2022/08/08 04:08:36;;;;;;;14.13;11.38;;;16.10;99.90;;;;;;5078886;28;20400;-60
2022/08/08 04:11:11;;;;;;;12.85;11.02;;;16.10;99.90;;;;;;5078961;28;20304;-59
2022/08/08 04:13:38;;;;;;;15.80;11.57;;;16.10;99.90;;;;;;5078536;28;20047;-59
2022/08/08 04:16:04;;;;;;;14.10;11.55;;;16.10;99.90;;;;;;5079397;28;20112;-59
2022/08/08 04:18:32;;;;;;;13.93;11.85;;;16.00;99.90;;;;;;5078176;28;20312;-59
2022/08/08 04:20:59;;;;;;;17.08;11.90;;;16.00;99.90;;;;;;5078352;28;20038;-59
2022/08/08 04:23:25;;;;;;;18.38;11.60;;;16.00;99.90;;;;;;5079288;28;20029;-59
2022/08/08 04:25:51;;;;;;;13.48;11.00;;;16.00;99.90;;;;;;5078089;28;20050;-59
2022/08/08 04:28:16;;;;;;;14.15;10.60;;;16.00;99.90;;;;;;5078881;28;20028;-59
2022/08/08 04:30:43;;;;;;;13.40;11.00;;;16.00;99.90;;;;;;5078282;28;20053;-59
2022/08/08 04:33:09;;;;;;;14.05;10.73;;;15.90;99.90;;;;;;5079092;28;20060;-59
2022/08/08 04:35:35;;;;;;;16.63;11.18;;;16.00;99.90;;;;;;5078469;28;20036;-59
2022/08/08 04:38:00;;;;;;;12.80;10.80;;;16.00;99.90;;;;;;5078233;28;20037;-59
2022/08/08 04:40:32;;;;;;;14.10;11.43;;;16.00;99.90;;;;;;5078979;28;20277;-59
2022/08/08 04:42:59;;;;;;;16.42;11.75;;;16.00;99.90;;;;;;5061469;28;20036;-59
2022/08/08 04:45:29;;;;;;;17.73;12.48;;;16.00;99.90;;;;;;5078804;28;20103;-59
2022/08/08 04:47:58;;;;;;;13.05;11.15;;;16.10;99.90;;;;;;5078021;28;20035;-59
2022/08/08 04:50:25;;;;;;;15.77;12.15;;;16.10;99.90;;;;;;5078612;28;20024;-59
2022/08/08 04:52:53;;;;;;;15.63;12.18;;;16.10;99.90;;;;;;5061392;28;20094;-59
2022/08/08 04:55:19;;;;;;;15.73;12.02;;;16.20;99.90;;;;;;5077866;28;20301;-59
2022/08/08 04:57:45;;;;;;;17.52;12.50;;;16.20;99.90;;;;;;5077675;28;20048;-59
2022/08/08 05:00:12;;;;;;;16.05;12.60;;;16.20;99.90;;;;;;5077692;28;20044;-59
2022/08/08 05:02:38;;;;;;;18.13;12.48;;;16.20;99.90;;;;;;5077616;28;20051;-59
2022/08/08 05:05:04;;;;;;;15.10;12.82;;;16.20;99.90;;;;;;5077579;28;20037;-58
2022/08/08 05:07:33;;;;;;;16.50;12.10;;;16.30;99.90;;;;;;5077572;28;20028;-59
2022/08/08 05:09:59;;;;;;;15.38;12.50;;;16.30;99.90;;;;;;5077526;28;20285;-59
2022/08/08 05:12:25;;;;;;;17.98;13.13;;;16.20;99.90;;;;;;5077550;28;20028;-59
2022/08/08 05:14:51;;;;;;;17.30;12.75;;;16.30;99.90;;;;;;5077377;28;20043;-60
2022/08/08 05:17:17;;;;;;;15.35;12.73;;;16.30;99.90;;;;;;5078230;28;20099;-59
2022/08/08 05:19:42;;;;;;;15.88;11.95;;;16.30;99.90;;;;;;5060605;28;20029;-59
2022/08/08 05:22:10;;;;;;;16.48;12.25;;;16.40;99.90;;;;;;5077250;28;20028;-59
2022/08/08 05:24:41;;;;;;;15.30;11.93;;;16.30;99.90;;;;;;5077276;28;20419;-59
2022/08/08 05:27:07;;;;;;;16.52;12.18;;;16.30;99.90;;;;;;5077263;28;20142;-59
2022/08/08 05:29:36;;;;;;;17.25;11.20;;;16.40;99.90;;;;;;5077145;28;20017;-60
2022/08/08 05:32:06;;;;;;;15.93;12.23;;;16.40;99.90;;;;;;5078528;28;20349;-59
2022/08/08 05:34:47;;;;;;;14.45;12.07;;;16.60;99.90;;;;;;5077048;28;20052;-59
2022/08/08 05:37:19;;;;;;;15.80;11.57;;;16.70;99.90;;;;;;5076421;28;20099;-59
2022/08/08 05:39:53;;;;;;;13.70;11.32;;;16.70;99.90;;;;;;5076907;28;20040;-59
2022/08/08 05:42:41;;;;;;;;;;;16.80;99.90;;;;;;5077240;28;20082;-59
2022/08/08 05:45:12;;;;;;;13.55;10.48;;;16.80;99.90;;;;;;5076791;28;20003;-60
2022/08/08 05:47:40;;;;;;;12.25;10.07;;;16.90;99.90;;;;;;5076864;28;20032;-59
2022/08/08 05:50:07;;;;;;;15.48;10.85;;;17.00;99.90;;;;;;5076732;28;20049;-59
2022/08/08 05:52:34;;;;;;;15.63;10.15;;;17.10;99.90;;;;;;5060946;28;20036;-59
2022/08/08 05:55:11;;;;;;;14.05;10.80;;;17.20;99.90;;;;;;5060242;28;20102;-59
2022/08/08 05:57:41;;;;;;;14.45;9.88;;;17.10;99.90;;;;;;5076549;28;20059;-59
2022/08/08 06:00:10;;;;;;;15.80;10.60;;;17.10;99.90;;;;;;5076503;28;20044;-59
2022/08/08 06:03:12;;;;;;;12.35;9.27;;;17.30;99.90;;;;;;5077827;28;20334;-59
2022/08/08 06:05:49;;;;;;;14.82;10.30;;;17.20;99.90;;;;;;5076510;28;20032;-59
2022/08/08 06:08:22;;;;;;;13.63;10.10;;;17.20;99.90;;;;;;5077032;28;20028;-59
2022/08/08 06:10:50;;;;;;;16.40;10.45;;;17.40;99.90;;;;;;5077235;28;20020;-59
2022/08/08 06:13:17;;;;;;;11.90;8.98;;;17.50;99.90;;;;;;5077075;28;20032;-59
2022/08/08 06:15:47;;;;;;;11.25;9.05;;;17.60;99.90;;;;;;5076343;28;20055;-60
2022/08/08 06:18:14;;;;;;;11.65;9.00;;;17.70;99.90;;;;;;5076342;28;20031;-59
2022/08/08 06:20:41;;;;;;;13.10;8.65;;;17.80;99.90;;;;;;5077306;28;20044;-59
2022/08/08 06:23:07;;;;;;;11.43;8.75;;;18.00;99.90;;;;;;5076130;28;20032;-60
2022/08/08 06:25:41;;;;;;;11.80;8.45;;;18.00;99.90;;;;;;5076327;28;20032;-60
2022/08/08 06:28:16;;;;;;;8.48;7.60;;;18.00;99.90;;;;;;5076134;28;20020;-60
2022/08/08 06:30:43;;;;;;;9.68;7.32;;;18.20;99.90;;;;;;5076173;28;20123;-59
2022/08/08 06:33:11;;;;;;;7.88;6.88;;;18.30;99.90;;;;;;5076085;28;20029;-59
2022/08/08 06:35:47;;;;;;;14.60;7.00;;;18.30;99.90;;;;;;5076839;28;20028;-59
2022/08/08 06:38:20;;;;;;;10.88;6.82;;;18.40;99.90;;;;;;5077225;28;20277;-59
2022/08/08 06:40:55;;;;;;;8.07;6.85;;;18.40;99.90;;;;;;5076067;28;20036;-59
2022/08/08 06:43:29;;;;;;;9.18;6.88;;;18.50;99.90;;;;;;5076016;28;20358;-59
2022/08/08 06:45:58;;;;;;;;;;;18.60;99.90;;;;;;5076380;28;20028;-59
2022/08/08 06:48:24;;;;;;;10.85;5.95;;;18.60;99.90;;;;;;5076738;28;19927;-60
2022/08/08 06:50:50;;;;;;;11.52;6.50;;;18.70;99.90;;;;;;5075907;28;20033;-59
2022/08/08 06:53:19;;;;;;;8.18;6.03;;;18.70;99.90;;;;;;5075849;28;20035;-60
2022/08/08 06:55:47;;;;;;;8.05;6.07;;;18.90;99.90;;;;;;5076789;28;20036;-59
2022/08/08 06:58:13;;;;;;;10.10;6.63;;;19.10;99.90;;;;;;5076010;28;20048;-59
2022/08/08 07:00:44;;;;;;;10.50;6.72;;;19.10;99.90;;;;;;5075820;28;20024;-59
2022/08/08 07:03:17;;;;;;;9.90;6.60;;;19.10;99.90;;;;;;5076874;28;20116;-59
2022/08/08 07:05:49;;;;;;;11.65;5.45;;;19.20;99.90;;;;;;5075845;28;20025;-59
2022/08/08 07:08:29;;;;;;;10.20;6.32;;;19.30;99.90;;;;;;5075775;28;20025;-60
2022/08/08 07:10:58;;;;;;;7.65;5.80;;;19.40;99.90;;;;;;5075804;28;20021;-59
2022/08/08 07:13:38;;;;;;;6.38;5.38;;;19.50;99.90;;;;;;5075685;28;20032;-59
2022/08/08 07:16:19;;;;;;;7.40;4.97;;;19.60;99.90;;;;;;5076738;28;20029;-60
2022/08/08 07:19:05;;;;;;;7.70;5.15;;;19.50;99.90;;;;;;5075653;28;20056;-59
2022/08/08 07:21:42;;;;;;;6.45;4.30;;;19.70;99.90;;;;;;5075471;28;20032;-59
2022/08/08 07:24:34;;;;;;;5.68;4.20;;;19.90;99.90;;;;;;5075599;28;20103;-59
2022/08/08 07:27:05;;;;;;;5.97;3.40;;;20.10;99.90;;;;;;5075567;28;20028;-59
2022/08/08 07:29:36;;;;;;;8.52;3.60;;;20.00;99.90;;;;;;5075582;28;20111;-60
2022/08/08 07:32:02;;;;;;;4.40;3.22;;;20.00;99.90;;;;;;5075531;28;20041;-60
2022/08/08 07:34:30;;;;;;;9.35;3.72;;;20.10;99.90;;;;;;5075500;28;20036;-59
2022/08/08 07:36:57;;;;;;;6.75;3.38;;;20.30;99.90;;;;;;5075426;28;20036;-60
2022/08/08 07:39:23;;;;;;;6.80;2.78;;;20.40;99.90;;;;;;5058776;28;20359;-60
2022/08/08 07:41:50;;;;;;;6.70;2.65;;;20.40;99.90;;;;;;5075357;28;20028;-60
2022/08/08 07:44:18;;;;;;;4.72;2.28;;;20.50;99.90;;;;;;5075390;28;20108;-60
2022/08/08 07:46:45;;;;;;;5.13;2.78;;;20.50;99.90;;;;;;5076111;28;20036;-59
2022/08/08 07:49:14;;;;;;;2.92;1.90;;;20.70;99.90;;;;;;5075378;28;20031;-59
2022/08/08 07:51:42;;;;;;;4.20;2.50;;;20.70;99.90;;;;;;5075332;28;20048;-60
2022/08/08 07:54:32;;;;;;;4.93;2.60;;;20.80;99.90;;;;;;5058717;28;20175;-59
2022/08/08 07:57:29;;;;;;;6.28;2.80;;;20.70;99.90;;;;;;5075969;28;20289;-60
2022/08/08 08:00:08;;;;;;;6.57;3.63;;;20.60;99.90;;;;;;5060150;28;20085;-59
2022/08/08 08:03:02;;;;;;;5.85;2.83;;;20.60;99.90;;;;;;5079632;28;20044;-60
2022/08/08 08:05:31;;;;;;;3.72;2.55;;;20.70;99.90;;;;;;5078866;28;20123;-59
2022/08/08 08:08:12;;;;;;;4.65;2.17;;;20.80;99.90;;;;;;5078762;28;20115;-60
2022/08/08 08:10:39;;;;;;;6.57;2.50;;;20.90;99.90;;;;;;5078646;28;20095;-60
2022/08/08 08:13:20;;;;;;;3.60;2.30;;;21.20;99.90;;;;;;5078607;28;20347;-60
2022/08/08 08:15:52;;;;;;;;;;;21.30;99.90;;;;;;5080147;28;20103;-59
2022/08/08 08:18:22;;;;;;;5.20;2.30;;;21.10;99.90;;;;;;5078594;28;19926;-60
2022/08/08 08:20:52;;;;;;;3.33;2.38;;;21.00;99.90;;;;;;5078573;28;20106;-59
2022/08/08 08:23:18;;;;;;;3.53;2.38;;;21.00;99.90;;;;;;5078763;28;20107;-59
2022/08/08 08:25:45;;;;;;;3.75;2.03;;;21.10;99.90;;;;;;5078471;28;20089;-60
2022/08/08 08:28:12;;;;;;;3.42;2.20;;;21.30;99.90;;;;;;5079282;28;20048;-59
2022/08/08 08:30:38;;;;;;;4.88;2.08;;;21.40;99.90;;;;;;5045277;28;20416;-59
2022/08/08 08:33:04;;;;;;;4.43;1.92;;;21.40;99.90;;;;;;5078333;28;20040;-59
2022/08/08 08:35:30;;;;;;;7.47;2.22;;;21.50;99.90;;;;;;5078259;28;20036;-59
2022/08/08 08:37:58;;;;;;;5.57;1.95;;;21.60;99.90;;;;;;5078255;28;20455;-59
2022/08/08 08:40:26;;;;;;;4.13;1.85;;;21.70;99.90;;;;;;5078231;28;20033;-59
2022/08/08 08:42:54;;;;;;;4.57;2.00;;;21.80;99.90;;;;;;5061567;28;20140;-59
2022/08/08 08:45:21;;;;;;;4.40;2.20;;;21.70;99.90;;;;;;5078096;28;20032;-60
2022/08/08 08:47:49;;;;;;;3.28;1.88;;;21.60;99.90;;;;;;5078067;28;20021;-58
2022/08/08 08:50:15;;;;;;;3.92;1.50;;;21.70;99.90;;;;;;5078015;28;20119;-59
2022/08/08 08:52:42;;;;;;;5.80;2.30;;;21.70;99.90;;;;;;5078004;28;20032;-59
2022/08/08 08:55:12;;;;;;;5.65;2.28;;;21.70;99.90;;;;;;5077903;28;20365;-59
2022/08/08 08:57:42;;;;;;;3.42;1.80;;;21.70;99.90;;;;;;5077782;28;20052;-60
2022/08/08 09:00:09;;;;;;;3.03;1.77;;;21.90;99.90;;;;;;5078623;28;20032;-59
2022/08/08 09:02:37;;;;;;;5.25;2.03;;;21.90;99.90;;;;;;5077840;28;20064;-59
2022/08/08 09:05:06;;;;;;;3.88;1.90;;;22.00;99.90;;;;;;5077758;28;20056;-59
2022/08/08 09:07:35;;;;;;;2.95;1.48;;;22.20;99.90;;;;;;5077773;28;20289;-59
2022/08/08 09:10:02;;;;;;;3.15;1.80;;;22.30;99.90;;;;;;5078691;28;20020;-59
2022/08/08 09:12:38;;;;;;;5.03;1.90;;;22.30;99.90;;;;;;5076534;28;20089;-59
2022/08/08 09:15:05;;;;;;;3.33;2.20;;;22.30;99.90;;;;;;5077530;28;20033;-59
2022/08/08 09:17:36;;;;;;;3.60;1.70;;;22.40;99.90;;;;;;5077469;28;20032;-59
2022/08/08 09:20:03;;;;;;;5.53;2.08;;;22.60;99.90;;;;;;5077440;28;20086;-59
2022/08/08 09:22:30;;;;;;;2.88;1.90;;;22.80;99.90;;;;;;5078062;28;20028;-59
2022/08/08 09:24:57;;;;;;;3.22;1.92;;;22.90;99.90;;;;;;5077496;28;20090;-59
2022/08/08 09:27:23;;;;;;;5.95;2.30;;;22.90;99.90;;;;;;5077318;28;20038;-59
2022/08/08 09:30:07;;;;;;;4.57;1.67;;;22.70;99.90;;;;;;5077239;28;20020;-59
2022/08/08 09:32:37;;;;;;;4.05;1.75;;;22.90;99.90;;;;;;5077142;28;20066;-60
2022/08/08 09:35:09;;;;;;;5.18;1.60;;;22.80;99.90;;;;;;5077148;28;20040;-59
2022/08/08 09:37:49;;;;;;;2.70;1.70;;;22.70;99.90;;;;;;5077097;28;20047;-59
2022/08/08 09:40:25;;;;;;;3.45;1.55;;;22.90;99.90;;;;;;5077133;28;20102;-60
2022/08/08 09:43:02;;;;;;;3.25;1.60;;;22.90;99.90;;;;;;5077862;28;20139;-59
2022/08/08 09:45:35;;;;;;;3.35;1.63;;;22.80;99.90;;;;;;5078386;28;20317;-59
2022/08/08 09:48:03;;;;;;;2.63;1.25;;;22.90;99.90;;;;;;5078372;28;20120;-59
2022/08/08 09:50:31;;;;;;;2.75;1.42;;;23.10;99.90;;;;;;5076959;28;20025;-59
2022/08/08 09:53:00;;;;;;;3.60;1.50;;;23.40;99.90;;;;;;5078292;28;20039;-59
2022/08/08 09:55:29;;;;;;;2.40;1.40;;;23.50;99.90;;;;;;5077959;28;20343;-61
2022/08/08 09:58:16;;;;;;;5.68;1.55;;;23.30;99.90;;;;;;5077494;28;20113;-60
2022/08/08 10:00:45;;;;;;;2.92;1.13;;;23.10;99.90;;;;;;5077936;28;20097;-59
2022/08/08 10:03:14;;;;;;;2.17;1.02;;;23.10;99.90;;;;;;5077427;28;20040;-59
2022/08/08 10:05:41;;;;;;;2.50;1.55;;;23.30;99.90;;;;;;5077451;28;20032;-58
2022/08/08 10:08:07;;;;;;;4.47;1.23;;;23.30;99.90;;;;;;5060072;28;20039;-59
2022/08/08 10:10:34;;;;;;;2.33;1.00;;;23.50;99.90;;;;;;5077389;28;20025;-59
2022/08/08 10:13:17;;;;;;;3.63;1.05;;;23.70;99.90;;;;;;5076647;28;20115;-59
2022/08/08 10:15:52;;;;;;;3.50;1.13;;;24.00;99.90;;;;;;5077893;28;20024;-59
2022/08/08 10:18:34;;;;;;;3.17;1.02;;;24.10;99.90;;;;;;5077867;28;20420;-59
2022/08/08 10:21:03;;;;;;;4.03;1.10;;;24.30;99.90;;;;;;5077958;28;20392;-59
2022/08/08 10:23:38;;;;;;;1.95;1.02;;;24.50;99.90;;;;;;5076671;28;20296;-59
2022/08/08 10:26:04;;;;;;;3.13;0.98;;;24.60;99.90;;;;;;5077023;28;20043;-59
2022/08/08 10:28:31;;;;;;;2.75;0.88;;;24.70;99.90;;;;;;5077131;28;20028;-59
2022/08/08 10:30:59;;;;;;;2.92;1.45;;;25.00;99.90;;;;;;5077052;28;20025;-58
2022/08/08 10:33:32;;;;;;;3.10;1.40;;;25.00;99.90;;;;;;5076252;28;20126;-60
2022/08/08 10:36:03;;;;;;;3.17;1.02;;;25.10;99.90;;;;;;5076861;28;20033;-60
2022/08/08 10:38:31;;;;;;;3.30;1.10;;;25.40;99.90;;;;;;5077049;28;20112;-59
2022/08/08 10:41:03;;;;;;;2.63;1.00;;;26.00;99.90;;;;;;5076213;28;20301;-59
2022/08/08 10:43:40;;;;;;;1.73;0.90;;;26.10;99.90;;;;;;5076890;28;20062;-59
2022/08/08 10:46:24;;;;;;;3.25;0.90;;;26.40;99.90;;;;;;5076116;28;20028;-59
2022/08/08 10:48:54;;;;;;;2.45;0.85;;;26.40;99.90;;;;;;5077360;28;20039;-60
2022/08/08 10:51:25;;;;;;;1.90;0.95;;;26.70;99.90;;;;;;5076863;28;20047;-60
2022/08/08 10:53:54;;;;;;;1.42;0.88;;;27.20;99.90;;;;;;5076894;28;20063;-60
2022/08/08 10:56:20;;;;;;;1.60;0.70;;;27.60;99.90;;;;;;5076860;28;20048;-60
2022/08/08 10:58:55;;;;;;;2.03;0.75;;;28.00;99.90;;;;;;5076002;28;20040;-60
2022/08/08 11:01:21;;;;;;;3.67;0.82;;;28.00;99.90;;;;;;5076561;28;20307;-60
2022/08/08 11:03:46;;;;;;;2.72;0.80;;;28.10;99.90;;;;;;5076787;28;20036;-60
2022/08/08 11:06:14;;;;;;;2.25;0.90;;;28.50;99.90;;;;;;5076657;28;20032;-60
2022/08/08 11:08:40;;;;;;;2.85;0.80;;;28.70;99.90;;;;;;5076666;28;20086;-59
2022/08/08 11:11:10;;;;;;;2.75;0.80;;;28.30;99.90;;;;;;5076601;28;20028;-60
2022/08/08 11:13:41;;;;;;;3.10;0.80;;;27.90;99.90;;;;;;5059216;28;20032;-59
2022/08/08 11:16:11;;;;;;;2.30;0.80;;;27.80;99.90;;;;;;5076185;28;20029;-59
2022/08/08 11:18:38;;;;;;;1.50;0.60;;;28.30;99.90;;;;;;5076659;28;20031;-59
2022/08/08 11:21:06;;;;;;;2.58;0.70;;;29.10;99.90;;;;;;5076994;28;20028;-59
2022/08/08 11:23:33;;;;;;;2.35;0.50;;;29.10;99.90;;;;;;5076375;28;20091;-59
2022/08/08 11:26:04;;;;;;;4.20;0.80;;;29.00;99.90;;;;;;5076859;28;20300;-59
2022/08/08 11:28:36;;;;;;;2.72;0.70;;;28.50;99.90;;;;;;5059085;28;20047;-59
2022/08/08 11:31:03;;;;;;;1.85;0.70;;;27.80;99.90;;;;;;5076402;28;20025;-59
2022/08/08 11:33:32;;;;;;;5.80;0.80;;;28.80;99.90;;;;;;5076331;28;20056;-59
2022/08/08 11:35:59;;;;;;;3.20;0.70;;;30.10;99.90;;;;;;5079498;28;20081;-59
2022/08/08 11:38:25;;;;;;;2.90;0.70;;;31.30;99.60;;;;;;5080682;28;20028;-59
2022/08/08 11:40:53;;;;;;;2.30;0.85;;;31.70;97.60;;;;;;5080048;28;20039;-60
2022/08/08 11:43:20;;;;;;;2.05;0.80;;;33.30;95.20;;;;;;5080431;28;20047;-60
2022/08/08 11:45:48;;;;;;;2.33;0.90;;;34.20;90.60;;;;;;5079332;28;20043;-60
2022/08/08 11:48:15;;;;;;;2.65;0.60;;;35.30;86.10;;;;;;5080076;28;20111;-60
2022/08/08 11:50:42;;;;;;;1.52;0.60;;;34.30;82.10;;;;;;5079225;28;20053;-60
2022/08/08 11:53:09;;;;;;;3.75;0.70;;;35.60;79.20;;;;;;5062818;28;20024;-60
2022/08/08 11:55:50;;;;;;;2.28;0.70;;;36.60;72.00;;;;;;5079080;28;20032;-60
2022/08/08 11:58:17;;;;;;;2.70;0.70;;;36.80;69.00;;;;;;5079699;28;20032;-59
2022/08/08 12:00:51;;;;;;;1.52;0.65;;;36.30;69.80;;;;;;5079828;28;20106;-60
2022/08/08 12:03:32;;;;;;;4.70;0.77;;;35.50;67.50;;;;;;5079941;28;20044;-59
2022/08/08 12:05:59;;;;;;;4.68;0.80;;;33.50;70.80;;;;;;5079772;28;20053;-59
2022/08/08 12:08:33;;;;;;;3.28;0.77;;;32.10;73.50;;;;;;5062172;28;20408;-60
2022/08/08 12:11:01;;;;;;;1.95;0.60;;;31.80;78.30;;;;;;5062329;28;20101;-59
2022/08/08 12:13:27;;;;;;;1.00;0.50;;;31.60;77.10;;;;;;5078795;28;20396;-59
2022/08/08 12:15:54;;;;;;;1.30;0.70;;;32.50;75.40;;;;;;5080463;28;20166;-59
2022/08/08 12:18:26;;;;;;;1.63;0.50;;;32.40;75.60;;;;;;5079381;28;20119;-59
2022/08/08 12:20:54;;;;;;;1.05;0.68;;;32.50;76.40;;;;;;5078721;28;20074;-59
2022/08/08 12:23:34;;;;;;;1.20;0.68;;;33.00;73.50;;;;;;5079271;28;20296;-59
2022/08/08 12:26:22;;;;;;;1.23;0.47;;;32.40;72.10;;;;;;5078745;28;20032;-59
2022/08/08 12:28:58;;;;;;;2.05;0.70;;;32.80;72.90;;;;;;5078472;28;20056;-59
2022/08/08 12:31:34;;;;;;;1.17;0.57;;;34.70;69.50;;;;;;5078358;28;20111;-59
2022/08/08 12:34:01;;;;;;;1.90;0.60;;;36.10;66.80;;;;;;5079602;28;20385;-60
2022/08/08 12:36:39;;;;;;;2.45;0.68;;;36.80;62.50;;;;;;5079477;28;20036;-60
2022/08/08 12:39:05;;;;;;;1.40;0.70;;;36.20;62.90;;;;;;5078763;28;20064;-59
2022/08/08 12:41:32;;;;;;;1.38;0.77;;;34.90;64.60;;;;;;5061482;28;20033;-59
2022/08/08 12:44:09;;;;;;;1.58;0.57;;;34.20;65.50;;;;;;5078934;28;20036;-59
2022/08/08 12:46:35;;;;;;;3.28;0.68;;;35.40;65.00;;;;;;5078741;28;20095;-59
2022/08/08 12:49:04;;;;;;;1.02;0.50;;;36.20;61.10;;;;;;5079034;28;20031;-59
2022/08/08 12:51:41;;;;;;;4.15;0.70;;;35.90;59.90;;;;;;5077900;28;20170;-59
2022/08/08 12:54:08;;;;;;;2.97;0.55;;;36.60;59.00;;;;;;5078702;28;20020;-59
2022/08/08 12:56:39;;;;;;;2.25;0.60;;;36.50;58.30;;;;;;5078567;28;20155;-59
2022/08/08 12:59:22;;;;;;;1.10;0.60;;;35.90;56.30;;;;;;5078432;28;20049;-59
2022/08/08 13:01:50;;;;;;;2.40;0.82;;;37.30;55.60;;;;;;5078813;28;20441;-58
2022/08/08 13:04:34;;;;;;;1.42;0.75;;;38.60;53.60;;;;;;5078261;28;20021;-59
2022/08/08 13:07:06;;;;;;;3.35;0.73;;;37.20;55.30;;;;;;5077690;28;20116;-59
2022/08/08 13:09:44;;;;;;;;;;;37.50;55.10;;;;;;5079028;28;20296;-60
2022/08/08 13:12:12;;;;;;;3.95;0.60;;;37.80;54.10;;;;;;5078603;28;20190;-59
2022/08/08 13:14:46;;;;;;;2.08;0.70;;;36.50;56.40;;;;;;5077512;28;20028;-59
2022/08/08 13:17:14;;;;;;;1.23;0.60;;;35.80;56.80;;;;;;5078307;28;20159;-60
2022/08/08 13:19:41;;;;;;;2.95;0.77;;;35.20;56.30;;;;;;5061030;28;20064;-59
2022/08/08 13:22:07;;;;;;;1.98;0.70;;;36.00;56.10;;;;;;5077976;28;20037;-59